Terminal Aerodrome Forecast
Issued by NWS Omaha/Valley, NE

Home | Current Version | Previous Version | Text Only | Print | Product List | Glossary Off
Versions: 1 2 3 4 5 6 7 8 9 10 11 12 13 14 15 16 17 18 19 20 21 22 23 24 25 26 27 28 29 30 31 32 33 34 35 36 37 38

000
FTUS43 KOAX 180817 AAA
TAFOFK
TAF AMD
KOFK 180817Z 1808/1906 06007KT P6SM BKN050 OVC080
      TEMPO 1808/1811 5SM -SHRA BKN040
     FM181100 08006KT P6SM SCT050 OVC120
      TEMPO 1811/1814 5SM -TSRA BKN035CB
     FM181400 11007KT 4SM -SHRA BR OVC025
     FM181800 15010KT P6SM BKN035 PROB30 1821/1903 3SM TSRA
      BKN020CB=

USA.gov is the U.S. government's official web portal to all federal, state and local government web resources and services.